createdAt,value
2023-02-23T00:01:56.042Z,197.38
2023-02-23T00:04:24.757Z,188.75
2023-02-23T00:06:53.493Z,199.50
2023-02-23T00:09:24.688Z,212.00
2023-02-23T00:11:54.466Z,187.45
2023-02-23T00:14:27.317Z,211.52
2023-02-23T00:16:56.099Z,190.50
2023-02-23T00:19:25.070Z,191.82
2023-02-23T00:21:54.253Z,205.40
2023-02-23T00:24:22.152Z,189.15
2023-02-23T00:26:51.711Z,193.13
2023-02-23T00:29:22.155Z,198.55
2023-02-23T00:31:50.980Z,206.43
2023-02-23T00:34:21.238Z,207.50
2023-02-23T00:36:56.550Z,202.93
2023-02-23T00:39:29.346Z,194.82
2023-02-23T00:42:02.854Z,201.70
2023-02-23T00:44:30.824Z,196.82
2023-02-23T00:46:58.223Z,200.85
2023-02-23T00:49:26.133Z,194.82
2023-02-23T00:51:53.859Z,197.30
2023-02-23T00:54:22.352Z,198.50
2023-02-23T00:56:50.672Z,189.10
2023-02-23T00:59:19.044Z,187.82
2023-02-23T01:01:46.678Z,188.07
2023-02-23T01:04:14.479Z,193.23
2023-02-23T01:06:42.706Z,186.65
2023-02-23T01:09:14.307Z,188.10
2023-02-23T01:11:41.854Z,182.05
2023-02-23T01:14:10.911Z,182.60
2023-02-23T01:16:39.035Z,184.82
2023-02-23T01:19:07.163Z,183.52
2023-02-23T01:21:37.832Z,180.77
2023-02-23T01:24:06.335Z,186.20
2023-02-23T01:26:41.620Z,195.93
2023-02-23T01:29:15.244Z,179.05
2023-02-23T01:31:46.256Z,197.82
2023-02-23T01:34:19.852Z,201.40
2023-02-23T01:36:47.463Z,181.40
2023-02-23T01:39:19.353Z,177.75
2023-02-23T01:41:46.966Z,180.75
2023-02-23T01:44:15.489Z,174.80
2023-02-23T01:46:46.781Z,182.38
2023-02-23T01:49:23.489Z,174.85
2023-02-23T01:52:07.620Z,171.05
2023-02-23T01:54:39.941Z,168.75
2023-02-23T01:57:11.362Z,169.13
2023-02-23T01:59:44.687Z,167.00
2023-02-23T02:02:13.501Z,177.20
2023-02-23T02:04:46.453Z,167.52
2023-02-23T02:07:18.216Z,169.55
2023-02-23T02:10:10.473Z,172.80
2023-02-23T02:12:46.651Z,178.70
2023-02-23T02:15:17.626Z,175.82
2023-02-23T02:18:09.262Z,167.85
2023-02-23T02:21:14.998Z,154.95
2023-02-23T02:24:10.351Z,177.02
2023-02-23T02:26:50.893Z,155.40
2023-02-23T02:29:52.463Z,164.93
2023-02-23T02:32:39.416Z,165.02
2023-02-23T02:35:18.934Z,161.93
2023-02-23T02:38:01.662Z,176.38
2023-02-23T02:40:55.065Z,155.32
2023-02-23T02:43:55.990Z,164.07
2023-02-23T02:46:34.276Z,164.52
2023-02-23T02:49:31.077Z,159.93
2023-02-23T02:52:20.791Z,154.80
2023-02-23T02:54:53.461Z,158.45
2023-02-23T02:57:25.256Z,162.02
2023-02-23T03:00:13.024Z,161.68
2023-02-23T03:02:59.594Z,167.00
2023-02-23T03:06:04.026Z,159.05
2023-02-23T03:08:56.232Z,157.80
2023-02-23T03:11:52.526Z,164.38
2023-02-23T03:14:55.011Z,176.38
2023-02-23T03:17:43.907Z,168.48
2023-02-23T03:20:40.161Z,172.23
2023-02-23T03:23:58.760Z,178.10
2023-02-23T03:26:56.030Z,170.23
2023-02-23T03:30:10.131Z,184.07
2023-02-23T03:33:09.231Z,176.70
2023-02-23T03:36:04.516Z,187.68
2023-02-23T03:39:11.950Z,175.70
2023-02-23T03:42:00.843Z,190.35
2023-02-23T03:44:52.144Z,197.50
2023-02-23T03:47:43.601Z,190.98
2023-02-23T03:50:39.689Z,182.13
2023-02-23T03:53:28.498Z,195.13
2023-02-23T03:56:16.905Z,190.90
2023-02-23T03:59:08.621Z,194.13
2023-02-23T04:01:57.230Z,202.20
2023-02-23T04:04:45.683Z,191.10
2023-02-23T04:07:36.882Z,205.00
2023-02-23T04:10:24.214Z,204.50
2023-02-23T04:13:16.460Z,192.93
2023-02-23T04:15:55.265Z,192.02
2023-02-23T04:18:34.910Z,196.30
2023-02-23T04:21:03.682Z,200.98
2023-02-23T04:23:31.550Z,187.48
2023-02-23T04:25:59.263Z,184.40
2023-02-23T04:28:27.942Z,199.95
2023-02-23T04:30:55.487Z,201.65
2023-02-23T04:33:24.114Z,202.85
2023-02-23T04:35:53.963Z,189.98
2023-02-23T04:38:22.206Z,198.32
2023-02-23T04:40:50.617Z,202.52
2023-02-23T04:43:18.172Z,208.20
2023-02-23T04:45:45.808Z,199.52
2023-02-23T04:48:13.221Z,214.07
2023-02-23T04:50:40.598Z,190.90
2023-02-23T04:53:08.004Z,186.68
2023-02-23T04:55:35.501Z,194.98
2023-02-23T04:58:03.709Z,217.30
2023-02-23T05:00:31.563Z,197.32
2023-02-23T05:02:59.000Z,205.77
2023-02-23T05:05:26.499Z,203.82
2023-02-23T05:07:55.084Z,188.57
2023-02-23T05:10:22.582Z,188.48
2023-02-23T05:12:50.061Z,192.68
2023-02-23T05:15:17.538Z,197.38
2023-02-23T05:17:44.995Z,197.95
2023-02-23T05:20:14.099Z,198.38
2023-02-23T05:22:41.846Z,204.30
2023-02-23T05:25:10.323Z,197.65
2023-02-23T05:27:38.223Z,190.30
2023-02-23T05:30:07.923Z,192.63
2023-02-23T05:32:35.676Z,207.65
2023-02-23T05:35:03.935Z,193.57
2023-02-23T05:37:31.415Z,188.88
2023-02-23T05:39:58.949Z,189.32
2023-02-23T05:42:26.496Z,196.52
2023-02-23T05:44:53.941Z,206.18
2023-02-23T05:47:21.526Z,195.50
2023-02-23T05:49:48.956Z,199.90
2023-02-23T05:52:16.332Z,198.80
2023-02-23T05:54:46.410Z,201.48
2023-02-23T05:57:17.311Z,202.90
2023-02-23T05:59:44.688Z,205.95
2023-02-23T06:02:12.202Z,204.85
2023-02-23T06:04:39.752Z,210.30
2023-02-23T06:07:07.861Z,208.52
2023-02-23T06:09:35.413Z,208.45
2023-02-23T06:12:02.771Z,214.38
2023-02-23T06:14:30.163Z,202.90
2023-02-23T06:16:58.580Z,199.63
2023-02-23T06:19:26.077Z,201.80
2023-02-23T06:21:53.477Z,213.52
2023-02-23T06:24:21.610Z,211.35
2023-02-23T06:26:48.993Z,208.35
2023-02-23T06:29:16.996Z,220.02
2023-02-23T06:31:44.622Z,213.68
2023-02-23T06:34:12.105Z,217.35
2023-02-23T06:36:39.553Z,211.10
2023-02-23T06:39:07.002Z,216.70
2023-02-23T06:41:35.767Z,217.05
2023-02-23T06:44:03.532Z,215.32
2023-02-23T06:46:31.055Z,218.43
2023-02-23T06:48:59.774Z,214.13
2023-02-23T06:51:27.174Z,239.63
2023-02-23T06:53:54.553Z,216.52
2023-02-23T06:56:22.014Z,237.23
2023-02-23T06:58:49.870Z,230.18
2023-02-23T07:01:19.005Z,212.20
2023-02-23T07:03:46.744Z,217.35
2023-02-23T07:06:14.183Z,216.43
2023-02-23T07:08:41.612Z,224.90
2023-02-23T07:11:10.900Z,209.90
2023-02-23T07:13:38.358Z,218.30
2023-02-23T07:16:06.808Z,207.50
2023-02-23T07:18:34.648Z,226.68
2023-02-23T07:21:02.060Z,207.52
2023-02-23T07:23:29.468Z,200.23
2023-02-23T07:25:56.846Z,195.00
2023-02-23T07:28:25.858Z,205.82
2023-02-23T07:30:57.154Z,210.75
2023-02-23T07:33:25.640Z,212.63
2023-02-23T07:35:53.055Z,206.90
2023-02-23T07:38:20.504Z,210.82
2023-02-23T07:40:52.963Z,204.60
2023-02-23T07:43:24.205Z,204.80
2023-02-23T07:45:51.840Z,217.77
2023-02-23T07:48:20.043Z,205.52
2023-02-23T07:50:49.084Z,215.77
2023-02-23T07:53:16.574Z,205.13
2023-02-23T07:55:43.989Z,222.55
2023-02-23T07:58:13.285Z,206.40
2023-02-23T08:00:40.787Z,202.88
2023-02-23T08:03:08.309Z,204.00
2023-02-23T08:05:36.744Z,193.48
2023-02-23T08:08:04.306Z,214.68
2023-02-23T08:10:31.965Z,211.38
2023-02-23T08:13:00.126Z,187.60
2023-02-23T08:15:27.544Z,192.00
2023-02-23T08:17:54.907Z,201.45
2023-02-23T08:20:22.361Z,206.57
2023-02-23T08:22:57.714Z,215.85
2023-02-23T08:25:25.640Z,209.38
2023-02-23T08:27:54.516Z,208.88
2023-02-23T08:30:23.611Z,194.25
2023-02-23T08:32:51.244Z,194.68
2023-02-23T08:35:20.256Z,206.13
2023-02-23T08:37:47.713Z,203.80
2023-02-23T08:40:20.755Z,203.05
2023-02-23T08:42:54.021Z,231.95
2023-02-23T08:45:21.446Z,198.80
2023-02-23T08:47:51.004Z,206.55
2023-02-23T08:50:19.839Z,197.35
2023-02-23T08:52:50.420Z,190.85
2023-02-23T08:55:23.037Z,192.00
2023-02-23T08:57:51.063Z,201.90
2023-02-23T09:00:19.078Z,197.68
2023-02-23T09:02:49.823Z,187.45
2023-02-23T09:05:17.845Z,182.90
2023-02-23T09:07:45.729Z,191.88
2023-02-23T09:10:15.669Z,168.10
2023-02-23T09:12:43.444Z,183.30
2023-02-23T09:15:11.451Z,182.48
2023-02-23T09:17:38.853Z,170.50
2023-02-23T09:20:06.825Z,174.50
2023-02-23T09:22:36.752Z,182.77
2023-02-23T09:25:05.040Z,176.82
2023-02-23T09:27:32.713Z,181.30
2023-02-23T09:30:00.159Z,156.02
2023-02-23T09:32:27.676Z,191.50
2023-02-23T09:34:55.177Z,181.85
2023-02-23T09:37:22.609Z,175.35
2023-02-23T09:39:49.958Z,167.77
2023-02-23T09:42:35.954Z,178.85
2023-02-23T09:45:07.613Z,173.50
2023-02-23T09:47:45.904Z,164.95
2023-02-23T09:50:23.492Z,172.95
2023-02-23T09:53:11.859Z,177.50
2023-02-23T09:55:41.006Z,170.85
2023-02-23T09:58:22.323Z,176.50
2023-02-23T10:01:09.221Z,169.30
2023-02-23T10:03:43.641Z,163.98
2023-02-23T10:06:17.071Z,169.27
2023-02-23T10:08:59.050Z,176.80
2023-02-23T10:11:43.009Z,175.85
2023-02-23T10:14:16.176Z,171.98
2023-02-23T10:17:05.932Z,166.60
2023-02-23T10:19:47.959Z,173.32
2023-02-23T10:22:16.383Z,175.05
2023-02-23T10:24:51.093Z,170.35
2023-02-23T10:27:21.341Z,166.95
2023-02-23T10:29:53.127Z,161.45
2023-02-23T10:32:22.284Z,160.45
2023-02-23T10:34:54.047Z,154.70
2023-02-23T10:37:22.376Z,152.98
2023-02-23T10:39:51.496Z,163.50
2023-02-23T10:42:28.916Z,156.70
2023-02-23T10:44:57.123Z,162.00
2023-02-23T10:47:34.867Z,152.45
2023-02-23T10:50:03.211Z,170.23
2023-02-23T10:52:46.888Z,167.05
2023-02-23T10:55:28.773Z,158.70
2023-02-23T10:58:22.757Z,172.55
2023-02-23T11:01:02.411Z,155.40
2023-02-23T11:03:37.945Z,159.02
2023-02-23T11:06:05.661Z,168.20
2023-02-23T11:08:39.525Z,166.07
2023-02-23T11:11:16.021Z,160.85
2023-02-23T11:13:46.656Z,151.25
2023-02-23T11:16:38.332Z,154.80
2023-02-23T11:19:19.110Z,167.68
2023-02-23T11:21:52.421Z,152.82
2023-02-23T11:24:30.926Z,155.27
2023-02-23T11:27:06.741Z,151.20
2023-02-23T11:29:35.817Z,155.18
2023-02-23T11:32:14.000Z,152.65
2023-02-23T11:34:43.526Z,141.48
2023-02-23T11:37:15.107Z,142.10
2023-02-23T11:39:51.896Z,113.93
2023-02-23T11:42:21.781Z,143.38
2023-02-23T11:45:04.756Z,143.40
2023-02-23T11:47:35.245Z,147.65
2023-02-23T11:50:04.045Z,135.10
2023-02-23T11:52:31.949Z,151.90
2023-02-23T11:55:02.890Z,144.18
2023-02-23T11:57:33.732Z,143.82
2023-02-23T12:00:21.166Z,128.93
2023-02-23T12:02:55.750Z,134.07
2023-02-23T12:05:29.492Z,150.05
2023-02-23T12:08:20.080Z,135.45
2023-02-23T12:10:55.589Z,133.20
2023-02-23T12:13:43.886Z,154.90
2023-02-23T12:16:11.296Z,147.73
2023-02-23T12:18:59.740Z,135.35
2023-02-23T12:21:39.697Z,141.65
2023-02-23T12:24:34.302Z,128.73
2023-02-23T12:27:15.263Z,132.90
2023-02-23T12:30:09.149Z,137.00
2023-02-23T12:33:26.003Z,129.48
2023-02-23T12:35:59.791Z,122.68
2023-02-23T12:38:51.855Z,122.82
2023-02-23T12:41:43.372Z,123.65
2023-02-23T12:44:36.407Z,129.88
2023-02-23T12:47:31.550Z,127.15
2023-02-23T12:50:13.461Z,119.38
2023-02-23T12:52:53.784Z,118.65
2023-02-23T12:55:38.413Z,122.35
2023-02-23T12:58:29.236Z,122.90
2023-02-23T13:01:05.757Z,124.85
2023-02-23T13:03:55.067Z,102.35
2023-02-23T13:06:50.677Z,117.13
2023-02-23T13:09:18.052Z,105.60
2023-02-23T13:11:57.615Z,128.15
2023-02-23T13:14:44.572Z,116.15
2023-02-23T13:17:33.011Z,127.40
2023-02-23T13:20:15.320Z,110.28
2023-02-23T13:23:02.912Z,108.47
2023-02-23T13:25:38.223Z,111.53
2023-02-23T13:28:14.045Z,110.10
2023-02-23T13:30:47.307Z,109.38
2023-02-23T13:33:43.662Z,109.68
2023-02-23T13:36:12.936Z,109.20
2023-02-23T13:39:17.800Z,109.57
2023-02-23T13:42:13.417Z,121.53
2023-02-23T13:44:49.275Z,109.10
2023-02-23T13:47:45.484Z,114.68
2023-02-23T13:50:22.596Z,105.88
2023-02-23T13:52:55.688Z,106.47
2023-02-23T13:55:25.905Z,105.68
2023-02-23T13:57:57.502Z,98.20
2023-02-23T14:00:24.992Z,99.72
2023-02-23T14:02:53.713Z,104.70
2023-02-23T14:05:27.807Z,106.47
2023-02-23T14:08:02.428Z,96.75
2023-02-23T14:10:40.927Z,100.05
2023-02-23T14:13:14.333Z,103.82
2023-02-23T14:15:53.699Z,97.80
2023-02-23T14:18:21.166Z,98.82
2023-02-23T14:20:51.284Z,99.00
2023-02-23T14:23:21.489Z,104.45
2023-02-23T14:26:08.879Z,94.05
2023-02-23T14:28:39.345Z,95.15
2023-02-23T14:31:12.962Z,95.45
2023-02-23T14:33:46.128Z,105.43
2023-02-23T14:39:14.113Z,91.03
2023-02-23T14:41:53.271Z,95.07
2023-02-23T14:44:36.480Z,104.10
2023-02-23T14:47:21.535Z,105.80
2023-02-23T14:49:58.109Z,89.90
2023-02-23T14:52:29.017Z,86.25
2023-02-23T14:55:29.621Z,90.05
2023-02-23T14:57:58.169Z,95.25
2023-02-23T15:00:33.047Z,91.68
2023-02-23T15:03:02.035Z,95.53
2023-02-23T15:05:54.870Z,94.90
2023-02-23T15:08:24.961Z,93.07
2023-02-23T15:11:11.226Z,99.32
2023-02-23T15:13:43.657Z,93.13
2023-02-23T15:16:23.223Z,96.85
2023-02-23T15:18:51.783Z,107.53
2023-02-23T15:21:23.946Z,106.90
2023-02-23T15:24:03.057Z,110.35
2023-02-23T15:26:37.822Z,97.60
2023-02-23T15:29:13.499Z,98.10
2023-02-23T15:31:53.222Z,99.68
2023-02-23T15:34:29.991Z,96.47
2023-02-23T15:37:07.179Z,105.82
2023-02-23T15:39:54.847Z,101.30
2023-02-23T15:42:38.584Z,99.07
2023-02-23T15:45:19.918Z,100.00
2023-02-23T15:47:47.524Z,96.75
2023-02-23T15:50:36.227Z,102.13
2023-02-23T15:53:14.674Z,105.57
2023-02-23T15:55:43.506Z,111.80
2023-02-23T15:58:19.786Z,99.85
2023-02-23T16:00:59.516Z,108.75
2023-02-23T16:03:33.098Z,103.80
2023-02-23T16:06:17.501Z,98.25
2023-02-23T16:09:25.019Z,97.20
2023-02-23T16:12:02.017Z,105.68
2023-02-23T16:14:55.178Z,102.30
2023-02-23T16:20:16.796Z,108.50
2023-02-23T16:22:54.791Z,102.55
2023-02-23T16:25:26.383Z,105.70
2023-02-23T16:28:09.498Z,78.95
2023-02-23T16:30:51.370Z,113.00
2023-02-23T16:33:23.371Z,114.57
2023-02-23T16:36:15.620Z,117.68
2023-02-23T16:39:01.291Z,108.25
2023-02-23T16:41:33.189Z,107.95
2023-02-23T16:44:03.232Z,110.68
2023-02-23T16:46:51.234Z,112.60
2023-02-23T16:49:18.672Z,105.28
2023-02-23T16:51:46.529Z,130.80
2023-02-23T16:54:13.990Z,121.68
2023-02-23T16:56:41.777Z,118.28
2023-02-23T16:59:14.556Z,111.40
2023-02-23T17:01:41.933Z,113.68
2023-02-23T17:04:19.552Z,130.35
2023-02-23T17:06:55.677Z,116.80
2023-02-23T17:09:24.295Z,118.70
2023-02-23T17:11:51.697Z,122.82
2023-02-23T17:14:28.333Z,123.43
2023-02-23T17:16:55.852Z,134.98
2023-02-23T17:19:24.673Z,134.45
2023-02-23T17:21:53.465Z,128.02
2023-02-23T17:24:25.854Z,150.45
2023-02-23T17:26:53.639Z,143.73
2023-02-23T17:29:21.007Z,127.68
2023-02-23T17:31:49.486Z,124.70
2023-02-23T17:34:17.050Z,131.05
2023-02-23T17:36:44.470Z,115.28
2023-02-23T17:39:14.222Z,139.07
2023-02-23T17:41:41.730Z,127.97
2023-02-23T17:44:09.317Z,139.02
2023-02-23T17:46:36.793Z,128.88
2023-02-23T17:49:04.593Z,133.55
2023-02-23T17:51:32.065Z,130.70
2023-02-23T17:53:59.508Z,123.60
2023-02-23T17:56:27.082Z,135.73
2023-02-23T17:58:54.463Z,125.03
2023-02-23T18:01:22.000Z,133.43
2023-02-23T18:03:51.405Z,133.00
2023-02-23T18:06:20.599Z,128.00
2023-02-23T18:08:50.525Z,134.45
2023-02-23T18:11:21.737Z,138.00
2023-02-23T18:13:52.402Z,141.02
2023-02-23T18:16:20.139Z,162.13
2023-02-23T18:18:49.094Z,206.13
2023-02-23T18:21:19.814Z,152.15
2023-02-23T18:23:48.174Z,160.10
2023-02-23T18:26:21.693Z,165.55
2023-02-23T18:28:49.339Z,157.80
2023-02-23T18:31:22.377Z,157.55
2023-02-23T18:33:53.066Z,160.25
2023-02-23T18:36:27.968Z,148.60
2023-02-23T18:38:57.705Z,161.60
2023-02-23T18:41:30.795Z,158.68
2023-02-23T18:44:02.780Z,152.60
2023-02-23T18:46:31.814Z,154.50
2023-02-23T18:48:59.811Z,161.20
2023-02-23T18:51:27.255Z,153.85
2023-02-23T18:53:54.816Z,152.52
2023-02-23T18:56:27.223Z,140.07
2023-02-23T18:58:57.892Z,150.80
2023-02-23T19:01:31.180Z,152.57
2023-02-23T19:04:00.637Z,160.10
2023-02-23T19:06:29.040Z,163.02
2023-02-23T19:09:01.332Z,149.80
2023-02-23T19:11:32.658Z,159.18
2023-02-23T19:14:03.714Z,149.38
2023-02-23T19:16:32.894Z,151.00
2023-02-23T19:19:01.726Z,150.27
2023-02-23T19:21:29.122Z,155.10
2023-02-23T19:23:58.209Z,142.77
2023-02-23T19:26:26.869Z,153.85
2023-02-23T19:28:54.369Z,148.77
2023-02-23T19:31:26.183Z,148.82
2023-02-23T19:33:56.186Z,148.25
2023-02-23T19:36:29.804Z,153.75
2023-02-23T19:39:15.572Z,158.85
2023-02-23T19:41:44.770Z,157.25
2023-02-23T19:44:12.195Z,170.73
2023-02-23T19:46:40.397Z,165.40
2023-02-23T19:49:10.636Z,176.10
2023-02-23T19:51:38.094Z,171.45
2023-02-23T19:54:06.794Z,162.07
2023-02-23T19:56:34.887Z,185.63
2023-02-23T19:59:02.435Z,173.15
2023-02-23T20:01:30.209Z,167.90
2023-02-23T20:04:02.528Z,181.10
2023-02-23T20:09:00.383Z,174.43
2023-02-23T20:11:29.780Z,247.93
2023-02-23T20:13:57.777Z,184.95
2023-02-23T20:16:29.450Z,172.55
2023-02-23T20:18:57.874Z,167.55
2023-02-23T20:21:26.892Z,172.50
2023-02-23T20:23:55.825Z,183.82
2023-02-23T20:26:29.287Z,188.18
2023-02-23T20:28:57.928Z,204.55
2023-02-23T20:31:28.163Z,187.45
2023-02-23T20:33:58.437Z,192.68
2023-02-23T20:36:26.446Z,170.25
2023-02-23T20:38:56.713Z,188.32
2023-02-23T20:41:28.150Z,175.80
2023-02-23T20:43:56.364Z,172.75
2023-02-23T20:46:23.999Z,174.40
2023-02-23T20:48:51.555Z,175.45
2023-02-23T20:51:20.480Z,171.07
2023-02-23T20:53:49.145Z,176.60
2023-02-23T20:56:18.858Z,172.25
2023-02-23T20:58:46.758Z,187.43
2023-02-23T21:01:16.170Z,189.35
2023-02-23T21:03:43.625Z,184.27
2023-02-23T21:06:11.190Z,186.65
2023-02-23T21:08:40.031Z,180.75
2023-02-23T21:11:08.940Z,175.30
2023-02-23T21:13:36.946Z,179.73
2023-02-23T21:16:04.527Z,184.60
2023-02-23T21:18:31.976Z,175.75
2023-02-23T21:21:09.714Z,172.27
2023-02-23T21:23:39.972Z,185.35
2023-02-23T21:26:07.619Z,189.23
2023-02-23T21:28:35.586Z,175.50
2023-02-23T21:31:03.096Z,186.18
2023-02-23T21:33:30.626Z,182.88
2023-02-23T21:35:58.799Z,183.43
2023-02-23T21:38:26.381Z,174.60
2023-02-23T21:40:53.805Z,179.95
2023-02-23T21:43:23.084Z,167.25
2023-02-23T21:45:50.544Z,168.57
2023-02-23T21:48:17.902Z,159.23
2023-02-23T21:50:45.328Z,162.73
2023-02-23T21:53:12.709Z,171.20
2023-02-23T21:55:40.175Z,169.65
2023-02-23T21:58:07.831Z,164.82
2023-02-23T22:00:35.850Z,164.60
2023-02-23T22:03:03.680Z,165.73
2023-02-23T22:05:33.546Z,158.20
2023-02-23T22:08:00.939Z,157.05
2023-02-23T22:10:28.382Z,163.75
2023-02-23T22:12:56.777Z,158.43
2023-02-23T22:15:27.187Z,170.02
2023-02-23T22:17:55.823Z,161.90
2023-02-23T22:20:23.598Z,167.57
2023-02-23T22:22:51.331Z,167.25
2023-02-23T22:25:20.242Z,154.07
2023-02-23T22:27:48.255Z,161.15
2023-02-23T22:30:15.939Z,156.23
2023-02-23T22:32:43.930Z,161.52
2023-02-23T22:35:11.694Z,148.48
2023-02-23T22:37:39.254Z,163.57
2023-02-23T22:40:16.882Z,165.48
2023-02-23T22:42:48.422Z,155.05
2023-02-23T22:45:16.714Z,163.32
2023-02-23T22:47:44.239Z,160.27
2023-02-23T22:50:14.043Z,143.70
2023-02-23T22:52:43.103Z,158.52
2023-02-23T22:55:11.155Z,159.05
2023-02-23T22:57:39.927Z,163.93
2023-02-23T23:00:11.128Z,155.82
2023-02-23T23:02:38.815Z,158.20
2023-02-23T23:05:07.102Z,171.80
2023-02-23T23:07:34.779Z,168.90
2023-02-23T23:10:05.467Z,166.57
2023-02-23T23:12:34.516Z,158.75
2023-02-23T23:15:07.242Z,154.82
2023-02-23T23:17:34.667Z,160.18
2023-02-23T23:20:02.978Z,157.35
2023-02-23T23:22:33.243Z,146.75
2023-02-23T23:25:00.614Z,163.07
2023-02-23T23:27:29.099Z,150.25
2023-02-23T23:29:57.341Z,146.23
2023-02-23T23:32:27.625Z,155.65
2023-02-23T23:34:57.723Z,143.68
2023-02-23T23:37:29.142Z,142.95
2023-02-23T23:40:02.154Z,152.35
2023-02-23T23:42:29.608Z,147.18
2023-02-23T23:44:57.086Z,136.70
2023-02-23T23:47:24.749Z,142.25
2023-02-23T23:49:54.288Z,137.88
2023-02-23T23:52:21.819Z,141.15
2023-02-23T23:54:49.368Z,130.80
2023-02-23T23:57:17.432Z,142.38
2023-02-23T23:59:46.196Z,141.60
